Time;durP1;ratioP1;P1;durP2;ratioP2;P2;SDS_P1;SDS_P2;PMS_P1;PMS_P2;Temp;Humidity;BMP_temperature;BMP_pressure;BME280_temperature;BME280_humidity;BME280_pressure;Samples;Min_cycle;Max_cycle;Signal;HPM_P1;HPM_P2
2022/04/06 00:03:13;;;;;;;4.90;3.10;;;;;;;5.14;100.00;99174.61;5321096;55;1134844;-68
2022/04/06 00:08:19;;;;;;;4.80;2.93;;;;;;;5.15;100.00;99169.72;5321041;55;1136938;-69
2022/04/06 00:13:25;;;;;;;6.20;3.37;;;;;;;5.12;100.00;99166.02;5321022;55;1134830;-67
2022/04/06 00:18:31;;;;;;;5.57;3.07;;;;;;;5.13;100.00;99161.98;5321083;55;1136930;-68
2022/04/06 00:23:36;;;;;;;4.20;3.20;;;;;;;5.15;100.00;99161.39;5320896;55;1137116;-68
2022/04/06 00:28:42;;;;;;;3.43;3.13;;;;;;;5.18;100.00;99172.95;5320903;55;1137047;-67
2022/04/06 00:33:48;;;;;;;5.23;2.90;;;;;;;5.17;100.00;99180.92;5320904;55;1134890;-68
2022/04/06 00:38:55;;;;;;;4.73;3.67;;;;;;;5.14;100.00;99187.23;5320908;55;1137087;-69
2022/04/06 00:44:16;;;;;;;7.93;4.13;;;;;;;5.14;100.00;99166.27;5295014;55;1136935;-68
2022/04/06 00:49:22;;;;;;;10.97;5.63;;;;;;;5.12;100.00;99170.78;5271876;55;1134827;-68
2022/04/06 00:54:31;;;;;;;7.53;3.97;;;;;;;5.14;100.00;99157.57;5311257;55;1139052;-68
2022/04/06 00:59:36;;;;;;;4.37;3.13;;;;;;;5.17;100.00;99152.94;5320848;55;1136958;-69
2022/04/06 01:04:42;;;;;;;3.43;3.17;;;;;;;5.18;100.00;99152.46;5320909;55;1137156;-69
2022/04/06 01:09:48;;;;;;;4.30;3.60;;;;;;;5.14;100.00;99145.78;5320905;55;1135007;-69
2022/04/06 01:14:55;;;;;;;4.73;3.33;;;;;;;5.16;100.00;99150.42;5320816;55;1136931;-68
2022/04/06 01:20:02;;;;;;;8.20;6.15;;;;;;;5.18;100.00;99152.46;5320835;55;1137170;-68
2022/04/06 01:25:09;;;;;;;11.03;5.63;;;;;;;5.16;100.00;99139.95;5320825;55;1136935;-68
2022/04/06 01:30:14;;;;;;;8.40;4.77;;;;;;;5.15;100.00;99144.83;5320733;55;1136884;-68
2022/04/06 01:35:20;;;;;;;4.80;3.92;;;;;;;5.16;100.00;99144.71;5268813;55;1134892;-68
2022/04/06 01:40:27;;;;;;;7.43;3.70;;;;;;;5.17;100.00;99141.14;5242924;55;1134847;-69
2022/04/06 01:45:33;;;;;;;7.63;4.67;;;;;;;5.10;100.00;99147.79;5242864;55;1132780;-67
2022/04/06 01:56:03;;;;;;;5.37;3.95;;;;;;;5.03;100.00;99143.16;5134860;56;1134863;-69
2022/04/06 02:01:09;;;;;;;8.08;4.95;;;;;;;5.05;100.00;99144.68;5129516;57;1134838;-69
2022/04/06 02:06:15;;;;;;;6.70;4.33;;;;;;;5.07;100.00;99145.88;5129502;57;1132784;-67
2022/04/06 02:11:20;;;;;;;4.83;4.20;;;;;;;5.10;100.00;99143.86;5129603;57;1132839;-67
2022/04/06 02:16:26;;;;;;;7.43;3.83;;;;;;;5.09;100.00;99147.43;5133408;57;1132729;-68
2022/04/06 02:21:32;;;;;;;4.50;4.10;;;;;;;5.11;100.00;99151.25;5134013;57;1135039;-68
2022/04/06 02:26:37;;;;;;;5.50;4.30;;;;;;;5.16;100.00;99160.44;5133906;57;1134891;-67
2022/04/06 02:31:43;;;;;;;9.83;5.67;;;;;;;5.26;100.00;99163.17;5133789;57;1134902;-68
2022/04/06 02:36:49;;;;;;;11.17;5.70;;;;;;;5.32;100.00;99170.58;5124236;56;1134787;-68
2022/04/06 02:41:55;;;;;;;5.60;4.33;;;;;;;5.37;100.00;99171.03;5121736;56;1134856;-68
2022/04/06 02:47:01;;;;;;;9.73;5.47;;;;;;;5.35;100.00;99170.31;5121627;57;1130789;-69
2022/04/06 02:52:08;;;;;;;10.93;4.97;;;;;;;5.33;100.00;99159.14;5131606;57;1130965;-68
2022/04/06 02:57:14;;;;;;;6.45;4.95;;;;;;;5.37;100.00;99172.34;5147119;57;1136311;-70
2022/04/06 03:02:20;;;;;;;6.27;5.13;;;;;;;5.37;100.00;99169.72;5102329;57;1136901;-67
2022/04/06 03:07:26;;;;;;;8.83;5.60;;;;;;;5.39;100.00;99166.98;5131863;57;1136941;-69
2022/04/06 03:12:31;;;;;;;8.50;5.70;;;;;;;5.52;100.00;99167.69;5131637;57;1136953;-68
2022/04/06 03:17:39;;;;;;;8.70;7.00;;;;;;;5.58;100.00;99158.04;5131615;57;1137198;-70
2022/04/06 03:22:45;;;;;;;9.00;7.03;;;;;;;5.63;100.00;99156.73;5131506;56;1134829;-69
2022/04/06 03:27:53;;;;;;;12.67;7.80;;;;;;;5.59;100.00;99144.81;5131625;56;1135019;-69
2022/04/06 03:32:58;;;;;;;10.93;6.40;;;;;;;5.60;100.00;99148.27;5131298;57;1139030;-68
2022/04/06 03:38:05;;;;;;;9.67;6.57;;;;;;;5.61;100.00;99146.00;5216922;56;1139143;-68
2022/04/06 03:43:11;;;;;;;11.50;6.60;;;;;;;5.65;100.00;99142.19;5231867;56;1137160;-68
2022/04/06 03:48:17;;;;;;;11.90;7.23;;;;;;;5.58;100.00;99142.30;5234060;56;1139225;-68
2022/04/06 03:53:23;;;;;;;8.57;6.70;;;;;;;5.44;100.00;99149.95;5223764;56;1137076;-68
2022/04/06 03:58:30;;;;;;;9.23;6.57;;;;;;;5.32;100.00;99146.14;5150240;57;1134887;-68
2022/04/06 04:03:35;;;;;;;10.90;6.27;;;;;;;5.27;100.00;99139.94;5150190;57;1137091;-68
2022/04/06 04:08:41;;;;;;;7.03;5.47;;;;;;;5.37;100.00;99134.80;5151268;56;1139083;-69
2022/04/06 04:13:47;;;;;;;8.97;6.03;;;;;;;5.46;100.00;99132.79;5154634;56;1136987;-69
2022/04/06 04:18:53;;;;;;;8.80;5.70;;;;;;;5.47;100.00;99135.77;5154659;56;1135121;-68
2022/04/06 04:23:59;;;;;;;7.93;5.70;;;;;;;5.50;100.00;99140.27;5154845;56;1134936;-68
2022/04/06 04:29:12;;;;;;;6.33;4.80;;;;;;;5.57;100.00;99139.33;5154657;56;1137015;-68
2022/04/06 04:34:15;;;;;;;37.50;15.83;;;;;;;5.57;100.00;99137.54;5088367;57;1137210;-68
2022/04/06 04:39:21;;;;;;;13.60;8.40;;;;;;;5.55;100.00;99130.74;5208676;56;1141243;-69
2022/04/06 04:44:27;;;;;;;10.17;6.93;;;;;;;5.48;100.00;99126.48;5067558;57;1136972;-68
2022/04/06 04:49:33;;;;;;;12.93;8.47;;;;;;;5.45;100.00;99137.67;4982336;58;1136944;-68
2022/04/06 04:54:39;;;;;;;45.80;30.77;;;;;;;5.48;100.00;99132.20;4952309;58;1139312;-68
2022/04/06 04:59:45;;;;;;;28.10;16.57;;;;;;;5.48;100.00;99140.06;4981774;58;1141077;-69
2022/04/06 05:04:51;;;;;;;10.37;8.50;;;;;;;5.50;100.00;99139.47;5024024;57;1141129;-69
2022/04/06 05:09:56;;;;;;;10.03;6.33;;;;;;;5.50;100.00;99131.09;4985790;58;1139039;-69
2022/04/06 05:15:04;;;;;;;7.07;6.00;;;;;;;5.42;100.00;99130.88;4984856;58;1136963;-69
2022/04/06 05:20:10;;;;;;;6.17;4.73;;;;;;;5.37;100.00;99140.05;5090527;56;1134939;-68
2022/04/06 05:25:16;;;;;;;5.93;4.40;;;;;;;5.40;100.00;99141.95;5046285;57;1136972;-69
2022/04/06 05:30:26;;;;;;;6.20;5.60;;;;;;;5.47;100.00;99135.77;4912048;58;1137035;-69
2022/04/06 05:35:32;;;;;;;7.57;6.10;;;;;;;5.43;100.00;99134.33;5077455;57;1136917;-70
2022/04/06 05:40:37;;;;;;;5.97;4.80;;;;;;;5.36;100.00;99131.34;5152786;56;1134848;-68
2022/04/06 05:45:43;;;;;;;7.90;5.73;;;;;;;5.31;100.00;99133.52;5132686;56;1134843;-77
2022/04/06 05:50:49;;;;;;;5.07;4.60;;;;;;;5.26;100.00;99131.72;5163428;56;1137000;-75
2022/04/06 05:55:54;;;;;;;5.23;4.00;;;;;;;5.26;100.00;99127.78;5132308;57;1136974;-77
2022/04/06 06:01:00;;;;;;;5.53;5.03;;;;;;;5.29;100.00;99123.63;5132357;57;1136978;-76
2022/04/06 06:06:06;;;;;;;15.77;10.10;;;;;;;5.25;100.00;99128.27;5132393;57;1136962;-72
2022/04/06 06:11:12;;;;;;;9.77;8.77;;;;;;;5.25;100.00;99127.42;5132650;57;1139015;-75
2022/04/06 06:16:18;;;;;;;7.03;5.40;;;;;;;5.16;100.00;99117.20;5132709;57;1134883;-76
2022/04/06 06:21:26;;;;;;;9.63;8.10;;;;;;;5.24;100.00;99125.28;5133164;57;1134829;-73
2022/04/06 06:26:32;;;;;;;9.77;7.87;;;;;;;5.27;100.00;99129.45;5195882;56;1134947;-72
2022/04/06 06:31:38;;;;;;;13.13;10.30;;;;;;;5.28;100.00;99128.50;5298398;56;1134889;-71
2022/04/06 06:36:43;;;;;;;12.87;10.90;;;;;;;5.24;100.00;99122.66;5298643;55;1137161;-75
2022/04/06 06:41:49;;;;;;;8.03;6.30;;;;;;;5.22;100.00;99121.94;5237522;55;1139079;-72
2022/04/06 06:46:54;;;;;;;9.13;8.10;;;;;;;5.23;100.00;99121.47;5219445;56;1134980;-76
2022/04/06 06:52:00;;;;;;;8.33;7.50;;;;;;;5.22;100.00;99125.88;5253782;55;1134779;-74
2022/04/06 06:57:09;;;;;;;10.40;7.90;;;;;;;5.22;100.00;99117.17;5221342;56;1132772;-76
2022/04/06 07:02:15;;;;;;;6.77;5.93;;;;;;;5.21;100.00;99122.06;5221460;56;1134891;-75
2022/04/06 07:07:21;;;;;;;6.40;5.80;;;;;;;5.25;100.00;99126.95;5221683;56;1134820;-73
2022/04/06 07:12:26;;;;;;;7.13;5.70;;;;;;;5.30;100.00;99108.25;5221548;55;1134911;-77
2022/04/06 07:17:32;;;;;;;16.40;9.97;;;;;;;5.41;100.00;99121.34;5296680;55;1134736;-76
2022/04/06 07:22:38;;;;;;;10.00;7.00;;;;;;;5.44;100.00;99117.17;5240161;55;1136969;-72
2022/04/06 07:27:44;;;;;;;16.37;11.67;;;;;;;5.51;100.00;99123.59;5160909;56;1135143;-73
2022/04/06 07:32:50;;;;;;;14.23;9.80;;;;;;;5.58;100.00;99118.70;5163639;56;1138992;-73
2022/04/06 07:37:57;;;;;;;19.37;10.37;;;;;;;5.65;100.00;99113.34;5238330;56;1136976;-75
2022/04/06 07:43:03;;;;;;;19.97;11.27;;;;;;;5.77;100.00;99112.83;5241164;56;1136978;-73
2022/04/06 07:48:09;;;;;;;14.77;10.33;;;;;;;5.89;100.00;99102.21;5257263;55;1137158;-74
2022/04/06 07:53:17;;;;;;;15.17;10.53;;;;;;;6.07;100.00;99105.61;5320969;55;1147872;-71
2022/04/06 07:58:24;;;;;;;26.33;16.60;;;;;;;6.22;100.00;99110.92;5321319;55;1141127;-73
2022/04/06 08:03:31;;;;;;;19.20;13.93;;;;;;;6.41;100.00;99111.56;5321418;55;1142129;-79
2022/04/06 08:08:38;;;;;;;12.60;8.57;;;;;;;6.55;100.00;99093.69;5301809;55;1141101;-77
2022/04/06 08:13:43;;;;;;;10.77;8.77;;;;;;;6.80;100.00;99102.13;5233611;56;1139019;-77
2022/04/06 08:18:49;;;;;;;15.77;8.43;;;;;;;6.97;100.00;99102.36;5230110;56;1139024;-75
2022/04/06 08:23:56;;;;;;;10.00;8.07;;;;;;;7.14;100.00;99115.86;5250977;55;1139331;-74
2022/04/06 08:29:02;;;;;;;15.23;9.87;;;;;;;7.28;100.00;99108.45;5277325;55;1139128;-76
2022/04/06 08:34:08;;;;;;;11.77;7.13;;;;;;;7.46;100.00;99115.23;5134207;57;1139319;-78
2022/04/06 08:39:14;;;;;;;10.47;7.43;;;;;;;7.76;100.00;99103.81;5306486;55;1139039;-76
2022/04/06 08:44:20;;;;;;;7.20;6.50;;;;;;;8.23;100.00;99100.05;5220166;56;1139081;-75
2022/04/06 08:49:28;;;;;;;7.10;6.40;;;;;;;8.23;100.00;99100.05;5211371;56;1137008;-72
2022/04/06 08:54:34;;;;;;;8.07;5.67;;;;;;;8.48;100.00;99108.72;5214406;56;1136990;-75
2022/04/06 08:59:39;;;;;;;10.30;7.93;;;;;;;8.59;100.00;99107.25;5206328;56;1136961;-75
2022/04/06 09:04:46;;;;;;;9.67;6.03;;;;;;;8.68;100.00;99112.17;5206091;56;1139076;-73
2022/04/06 09:09:54;;;;;;;14.13;10.10;;;;;;;8.77;100.00;99125.33;5210340;56;1137041;-73
2022/04/06 09:15:15;;;;;;;10.73;6.13;;;;;;;8.88;100.00;99120.86;5220785;56;1141128;-76
2022/04/06 09:20:26;;;;;;;7.97;5.00;;;;;;;8.98;100.00;99114.61;5220766;56;1139049;-76
2022/04/06 09:25:37;;;;;;;10.43;5.77;;;;;;;9.03;100.00;99117.63;5220943;56;1136878;-77
2022/04/06 09:30:46;;;;;;;8.77;5.27;;;;;;;9.03;100.00;99116.80;5217718;56;1139055;-75
2022/04/06 09:35:51;;;;;;;6.75;5.30;;;;;;;9.12;100.00;99129.97;5208580;56;1137082;-71
2022/04/06 09:41:09;;;;;;;7.13;5.43;;;;;;;9.16;100.00;99122.12;5219121;56;1136980;-74
2022/04/06 09:51:45;;;;;;;6.80;5.23;;;;;;;9.36;100.00;99119.38;5240756;56;1136893;-77
2022/04/06 09:56:54;;;;;;;21.60;9.83;;;;;;;9.42;100.00;99109.09;5241374;56;1136950;-81
2022/04/06 10:02:01;;;;;;;18.33;8.77;;;;;;;9.47;100.00;99106.83;5275916;55;1136947;-74
2022/04/06 10:07:07;;;;;;;9.13;5.37;;;;;;;9.50;100.00;99105.22;5301332;55;1137261;-74
2022/04/06 10:12:14;;;;;;;9.37;5.20;;;;;;;9.53;100.00;99106.25;5244570;55;1135417;-76
2022/04/06 10:17:22;;;;;;;11.20;6.07;;;;;;;9.61;100.00;99108.17;5159857;56;1134883;-78
2022/04/06 10:22:38;;;;;;;9.60;5.33;;;;;;;9.79;100.00;99101.09;5331060;55;1136923;-74
2022/04/06 10:27:51;;;;;;;10.50;5.83;;;;;;;9.97;100.00;99094.52;5322683;55;1134861;-72
2022/04/06 10:32:57;;;;;;;10.28;6.80;;;;;;;10.07;100.00;99090.50;5321589;55;1136984;-73
2022/04/06 10:38:10;;;;;;;9.17;6.53;;;;;;;10.12;100.00;99094.33;5285620;55;1138972;-76
2022/04/06 10:43:40;;;;;;;12.13;5.77;;;;;;;10.08;100.00;99091.64;5218159;56;1136969;-75
2022/04/06 10:49:12;;;;;;;14.17;7.57;;;;;;;10.03;100.00;99100.53;5213491;56;1136974;-77
2022/04/06 10:54:23;;;;;;;17.67;9.97;;;;;;;10.09;100.00;99098.59;5206929;56;1140953;-72
2022/04/06 10:59:29;;;;;;;21.17;11.80;;;;;;;10.25;100.00;99093.98;5206167;56;1141060;-77
2022/04/06 11:04:41;;;;;;;28.00;15.80;;;;;;;10.46;100.00;99085.25;5213872;56;1143186;-73
2022/04/06 11:15:14;;;;;;;30.50;13.40;;;;;;;10.75;100.00;99085.45;5217032;56;1143146;-77
2022/04/06 11:20:24;;;;;;;13.63;8.07;;;;;;;10.82;100.00;99077.25;5242110;56;1143495;-73
2022/04/06 11:25:32;;;;;;;14.40;8.63;;;;;;;10.88;100.00;99077.94;5293898;55;1140945;-72
2022/04/06 11:30:39;;;;;;;17.67;8.17;;;;;;;10.93;100.00;99084.42;5229737;56;1141123;-73
2022/04/06 11:35:45;;;;;;;12.57;8.37;;;;;;;11.03;100.00;99082.98;5206513;56;1141091;-73
2022/04/06 11:40:54;;;;;;;12.83;8.30;;;;;;;11.12;100.00;99075.45;5207175;56;1141073;-78
2022/04/06 11:46:01;;;;;;;17.80;9.10;;;;;;;11.18;100.00;99087.20;5240918;55;1141410;-83
2022/04/06 11:51:06;;;;;;;10.90;6.13;;;;;;;11.18;100.00;99085.87;5240414;56;1141069;-74
2022/04/06 11:56:12;;;;;;;13.97;5.77;;;;;;;11.24;100.00;99083.44;5203354;55;1141118;-75
2022/04/06 12:01:26;;;;;;;15.10;7.83;;;;;;;11.27;98.59;99080.98;5163365;56;1141154;-75
2022/04/06 12:06:35;;;;;;;20.27;8.53;;;;;;;11.33;100.00;99078.16;5240040;56;1139172;-76
2022/04/06 12:11:41;;;;;;;11.17;6.40;;;;;;;11.34;99.09;99080.66;5235547;56;1141054;-78
2022/04/06 12:16:50;;;;;;;15.97;6.93;;;;;;;11.37;98.07;99071.08;5256731;55;1139297;-81
2022/04/06 12:21:56;;;;;;;11.23;6.27;;;;;;;11.34;95.48;99075.36;5200218;55;1139326;-75
